Terminal Aerodrome Forecast
Issued by NWS Wilmington, OH

Current Version | Previous Version | Graphics & Text | Print | Product List | Glossary On
Versions: 1 2 3 4 5 6 7 8 9 10 11 12 13 14 15 16 17 18 19 20 21 22 23 24 25
000
FTUS41 KILN 140500
TAFDAY
TAF
KDAY 140525Z 1406/1506 19014G22KT P6SM BKN150
     FM140900 19018G25KT P6SM VCSH BKN050 OVC120
     FM141400 20023G35KT P6SM -SHRA OVC050
     FM141600 23018G26KT P6SM -SHRA VCTS SCT022 OVC040CB
     FM142100 30014G22KT P6SM -RA SCT010 OVC022
     FM150200 33016G25KT 5SM -RA BR OVC008=

USA.gov is the U.S. government's official web portal to all federal, state and local government web resources and services.